sensor_id;sensor_type;location;lat;lon;timestamp;pressure;altitude;pressure_sealevel;temperature;humidity
32197;BME280;18697;42.770;23.400;2023-09-19T00:00:20;95943.78;;;19.46;64.63
32197;BME280;18697;42.770;23.400;2023-09-19T00:02:55;95945.06;;;19.51;64.54
32197;BME280;18697;42.770;23.400;2023-09-19T00:05:29;95950.44;;;19.60;64.31
32197;BME280;18697;42.770;23.400;2023-09-19T00:07:56;95953.78;;;19.47;64.54
32197;BME280;18697;42.770;23.400;2023-09-19T00:10:27;95953.03;;;19.58;64.24
32197;BME280;18697;42.770;23.400;2023-09-19T00:12:56;95949.66;;;19.65;64.05
32197;BME280;18697;42.770;23.400;2023-09-19T00:15:24;95953.78;;;19.64;64.42
32197;BME280;18697;42.770;23.400;2023-09-19T00:17:51;95951.19;;;19.72;63.99
32197;BME280;18697;42.770;23.400;2023-09-19T00:20:19;95953.50;;;19.67;64.12
32197;BME280;18697;42.770;23.400;2023-09-19T00:22:48;95957.34;;;19.64;64.34
32197;BME280;18697;42.770;23.400;2023-09-19T00:25:14;95948.88;;;19.70;63.81
32197;BME280;18697;42.770;23.400;2023-09-19T00:27:40;95945.81;;;19.68;63.90
32197;BME280;18697;42.770;23.400;2023-09-19T00:30:11;95946.09;;;19.59;64.58
32197;BME280;18697;42.770;23.400;2023-09-19T00:32:47;95949.91;;;19.67;64.46
32197;BME280;18697;42.770;23.400;2023-09-19T00:35:13;95948.34;;;19.77;64.22
32197;BME280;18697;42.770;23.400;2023-09-19T00:37:40;95941.69;;;19.80;63.88
32197;BME280;18697;42.770;23.400;2023-09-19T00:40:07;95945.28;;;19.75;64.06
32197;BME280;18697;42.770;23.400;2023-09-19T00:42:38;95939.16;;;19.71;63.96
32197;BME280;18697;42.770;23.400;2023-09-19T00:45:05;95934.81;;;19.64;64.04
32197;BME280;18697;42.770;23.400;2023-09-19T00:47:31;95926.38;;;19.48;64.84
32197;BME280;18697;42.770;23.400;2023-09-19T00:49:57;95920.56;;;19.29;65.69
32197;BME280;18697;42.770;23.400;2023-09-19T00:52:22;95924.94;;;19.13;65.94
32197;BME280;18697;42.770;23.400;2023-09-19T00:54:49;95914.47;;;18.91;66.61
32197;BME280;18697;42.770;23.400;2023-09-19T00:57:14;95919.84;;;18.84;67.18
32197;BME280;18697;42.770;23.400;2023-09-19T00:59:41;95929.31;;;18.75;67.58
32197;BME280;18697;42.770;23.400;2023-09-19T01:02:07;95923.41;;;18.90;67.30
32197;BME280;18697;42.770;23.400;2023-09-19T01:04:33;95927.50;;;18.89;67.42
32197;BME280;18697;42.770;23.400;2023-09-19T01:06:59;95934.41;;;18.88;67.21
32197;BME280;18697;42.770;23.400;2023-09-19T01:09:24;95941.06;;;18.96;66.86
32197;BME280;18697;42.770;23.400;2023-09-19T01:11:53;95930.06;;;18.98;66.58
32197;BME280;18697;42.770;23.400;2023-09-19T01:14:36;95927.00;;;19.07;66.98
32197;BME280;18697;42.770;23.400;2023-09-19T01:17:12;95934.66;;;19.07;66.50
32197;BME280;18697;42.770;23.400;2023-09-19T01:22:37;95923.16;;;19.10;66.10
32197;BME280;18697;42.770;23.400;2023-09-19T01:25:26;95922.63;;;19.17;66.39
32197;BME280;18697;42.770;23.400;2023-09-19T01:30:57;95932.81;;;19.31;65.49
32197;BME280;18697;42.770;23.400;2023-09-19T01:33:26;95934.59;;;19.34;65.36
32197;BME280;18697;42.770;23.400;2023-09-19T01:35:52;95939.72;;;19.53;65.03
32197;BME280;18697;42.770;23.400;2023-09-19T01:38:19;95933.28;;;19.58;64.79
32197;BME280;18697;42.770;23.400;2023-09-19T01:41:01;95927.63;;;19.75;64.09
32197;BME280;18697;42.770;23.400;2023-09-19T01:43:38;95925.03;;;19.77;63.67
32197;BME280;18697;42.770;23.400;2023-09-19T01:46:30;95926.56;;;19.78;63.57
32197;BME280;18697;42.770;23.400;2023-09-19T01:51:38;95926.84;;;19.74;64.10
32197;BME280;18697;42.770;23.400;2023-09-19T01:54:11;95915.81;;;19.82;63.89
32197;BME280;18697;42.770;23.400;2023-09-19T01:59:37;95937.09;;;19.77;63.91
32197;BME280;18697;42.770;23.400;2023-09-19T02:02:06;95936.22;;;20.05;62.98
32197;BME280;18697;42.770;23.400;2023-09-19T02:04:35;95937.38;;;20.20;62.26
32197;BME280;18697;42.770;23.400;2023-09-19T02:07:01;95942.69;;;20.41;61.85
32197;BME280;18697;42.770;23.400;2023-09-19T02:09:27;95942.66;;;20.46;61.52
32197;BME280;18697;42.770;23.400;2023-09-19T02:11:53;95940.34;;;20.45;61.16
32197;BME280;18697;42.770;23.400;2023-09-19T02:14:20;95930.88;;;20.42;61.26
32197;BME280;18697;42.770;23.400;2023-09-19T02:16:47;95932.69;;;20.40;61.34
32197;BME280;18697;42.770;23.400;2023-09-19T02:19:15;95929.34;;;20.35;61.38
32197;BME280;18697;42.770;23.400;2023-09-19T02:21:40;95929.88;;;20.34;61.36
32197;BME280;18697;42.770;23.400;2023-09-19T02:24:06;95931.41;;;20.41;61.28
32197;BME280;18697;42.770;23.400;2023-09-19T02:26:33;95922.69;;;20.39;61.28
32197;BME280;18697;42.770;23.400;2023-09-19T02:29:02;95918.91;;;20.25;60.86
32197;BME280;18697;42.770;23.400;2023-09-19T02:31:30;95932.69;;;20.34;60.88
32197;BME280;18697;42.770;23.400;2023-09-19T02:33:56;95926.59;;;20.24;61.28
32197;BME280;18697;42.770;23.400;2023-09-19T02:36:21;95913.75;;;20.29;61.27
32197;BME280;18697;42.770;23.400;2023-09-19T02:38:48;95913.72;;;20.34;61.21
32197;BME280;18697;42.770;23.400;2023-09-19T02:41:14;95912.56;;;20.13;61.98
32197;BME280;18697;42.770;23.400;2023-09-19T02:43:39;95911.28;;;20.09;61.69
32197;BME280;18697;42.770;23.400;2023-09-19T02:46:05;95901.25;;;20.19;61.65
32197;BME280;18697;42.770;23.400;2023-09-19T02:48:30;95897.63;;;20.24;60.99
32197;BME280;18697;42.770;23.400;2023-09-19T02:50:57;95897.59;;;20.29;61.27
32197;BME280;18697;42.770;23.400;2023-09-19T02:53:23;95893.97;;;20.34;61.08
32197;BME280;18697;42.770;23.400;2023-09-19T02:55:49;95895.50;;;20.41;60.78
32197;BME280;18697;42.770;23.400;2023-09-19T02:58:15;95897.75;;;20.48;60.54
32197;BME280;18697;42.770;23.400;2023-09-19T03:00:41;95888.78;;;20.50;60.05
32197;BME280;18697;42.770;23.400;2023-09-19T03:03:13;95894.44;;;20.44;60.29
32197;BME280;18697;42.770;23.400;2023-09-19T03:05:38;95894.56;;;20.63;60.07
32197;BME280;18697;42.770;23.400;2023-09-19T03:08:03;95897.97;;;20.86;59.59
32197;BME280;18697;42.770;23.400;2023-09-19T03:10:30;95901.94;;;21.02;59.01
32197;BME280;18697;42.770;23.400;2023-09-19T03:12:56;95893.81;;;21.22;58.28
32197;BME280;18697;42.770;23.400;2023-09-19T03:15:22;95883.91;;;21.35;57.86
32197;BME280;18697;42.770;23.400;2023-09-19T03:17:48;95887.16;;;21.44;57.04
32197;BME280;18697;42.770;23.400;2023-09-19T03:20:15;95881.81;;;21.41;57.10
32197;BME280;18697;42.770;23.400;2023-09-19T03:22:45;95878.22;;;21.40;57.33
32197;BME280;18697;42.770;23.400;2023-09-19T03:25:11;95874.38;;;21.38;57.21
32197;BME280;18697;42.770;23.400;2023-09-19T03:27:37;95864.63;;;21.39;57.23
32197;BME280;18697;42.770;23.400;2023-09-19T03:30:04;95866.69;;;21.38;57.18
32197;BME280;18697;42.770;23.400;2023-09-19T03:32:33;95867.50;;;21.33;57.19
32197;BME280;18697;42.770;23.400;2023-09-19T03:35:00;95876.63;;;21.45;56.99
32197;BME280;18697;42.770;23.400;2023-09-19T03:37:25;95890.84;;;21.58;56.42
32197;BME280;18697;42.770;23.400;2023-09-19T03:39:51;95887.41;;;21.65;56.38
32197;BME280;18697;42.770;23.400;2023-09-19T03:42:16;95897.06;;;21.75;55.96
32197;BME280;18697;42.770;23.400;2023-09-19T03:44:42;95896.53;;;21.77;55.87
32197;BME280;18697;42.770;23.400;2023-09-19T03:47:07;95897.97;;;21.83;55.62
32197;BME280;18697;42.770;23.400;2023-09-19T03:49:33;95885.84;;;21.88;55.60
32197;BME280;18697;42.770;23.400;2023-09-19T03:51:59;95899.59;;;21.97;55.51
32197;BME280;18697;42.770;23.400;2023-09-19T03:54:24;95898.81;;;22.03;55.38
32197;BME280;18697;42.770;23.400;2023-09-19T03:56:49;95907.75;;;22.07;55.13
32197;BME280;18697;42.770;23.400;2023-09-19T03:59:15;95912.63;;;22.06;55.24
32197;BME280;18697;42.770;23.400;2023-09-19T04:01:41;95901.25;;;22.12;54.89
32197;BME280;18697;42.770;23.400;2023-09-19T04:04:06;95911.81;;;22.11;54.95
32197;BME280;18697;42.770;23.400;2023-09-19T04:06:35;95911.03;;;22.11;54.97
32197;BME280;18697;42.770;23.400;2023-09-19T04:09:02;95909.97;;;22.14;54.62
32197;BME280;18697;42.770;23.400;2023-09-19T04:11:29;95916.16;;;22.12;56.50
32197;BME280;18697;42.770;23.400;2023-09-19T04:13:55;95909.97;;;22.14;55.80
32197;BME280;18697;42.770;23.400;2023-09-19T04:16:20;95918.69;;;22.16;55.06
32197;BME280;18697;42.770;23.400;2023-09-19T04:18:46;95917.47;;;22.11;54.71
32197;BME280;18697;42.770;23.400;2023-09-19T04:21:11;95922.06;;;22.14;54.37
32197;BME280;18697;42.770;23.400;2023-09-19T04:23:37;95919.22;;;22.14;54.44
32197;BME280;18697;42.770;23.400;2023-09-19T04:26:02;95919.75;;;22.13;54.38
32197;BME280;18697;42.770;23.400;2023-09-19T04:28:30;95911.50;;;22.15;54.05
32197;BME280;18697;42.770;23.400;2023-09-19T04:30:56;95925.41;;;22.13;53.95
32197;BME280;18697;42.770;23.400;2023-09-19T04:33:22;95916.69;;;22.11;53.95
32197;BME280;18697;42.770;23.400;2023-09-19T04:35:51;95913.63;;;22.09;53.84
32197;BME280;18697;42.770;23.400;2023-09-19T04:38:18;95926.19;;;22.13;53.81
32197;BME280;18697;42.770;23.400;2023-09-19T04:40:44;95911.03;;;22.11;53.85
32197;BME280;18697;42.770;23.400;2023-09-19T04:43:10;95914.41;;;22.09;53.82
32197;BME280;18697;42.770;23.400;2023-09-19T04:45:35;95908.44;;;22.13;53.74
32197;BME280;18697;42.770;23.400;2023-09-19T04:48:00;95908.44;;;22.13;53.65
32197;BME280;18697;42.770;23.400;2023-09-19T04:50:26;95899.72;;;22.11;53.83
32197;BME280;18697;42.770;23.400;2023-09-19T04:52:53;95903.78;;;22.15;53.79
32197;BME280;18697;42.770;23.400;2023-09-19T04:55:19;95905.38;;;22.11;53.65
32197;BME280;18697;42.770;23.400;2023-09-19T05:00:15;95903.84;;;22.10;53.94
32197;BME280;18697;42.770;23.400;2023-09-19T05:02:42;95899.59;;;21.97;54.17
32197;BME280;18697;42.770;23.400;2023-09-19T05:05:09;95904.41;;;21.41;55.87
32197;BME280;18697;42.770;23.400;2023-09-19T05:07:37;95903.63;;;21.40;55.90
32197;BME280;18697;42.770;23.400;2023-09-19T05:10:03;95905.28;;;20.29;59.49
32197;BME280;18697;42.770;23.400;2023-09-19T05:12:34;95904.00;;;20.71;58.39
32197;BME280;18697;42.770;23.400;2023-09-19T05:15:04;95905.91;;;20.87;57.74
32197;BME280;18697;42.770;23.400;2023-09-19T05:17:30;95894.50;;;20.98;57.68
32197;BME280;18697;42.770;23.400;2023-09-19T05:19:56;95894.13;;;21.13;57.75
32197;BME280;18697;42.770;23.400;2023-09-19T05:22:23;95894.78;;;20.95;58.03
32197;BME280;18697;42.770;23.400;2023-09-19T05:24:50;95900.91;;;20.75;58.96
32197;BME280;18697;42.770;23.400;2023-09-19T05:27:16;95904.88;;;20.85;59.08
32197;BME280;18697;42.770;23.400;2023-09-19T05:29:45;95905.22;;;21.06;58.47
32197;BME280;18697;42.770;23.400;2023-09-19T05:32:11;95905.81;;;21.28;57.92
32197;BME280;18697;42.770;23.400;2023-09-19T05:34:37;95896.53;;;21.34;58.22
32197;BME280;18697;42.770;23.400;2023-09-19T05:37:02;95886.59;;;20.26;61.01
32197;BME280;18697;42.770;23.400;2023-09-19T05:39:28;95884.53;;;20.67;60.12
32197;BME280;18697;42.770;23.400;2023-09-19T05:41:53;95869.63;;;20.97;59.29
32197;BME280;18697;42.770;23.400;2023-09-19T05:44:18;95883.34;;;21.12;58.91
32197;BME280;18697;42.770;23.400;2023-09-19T05:46:44;95871.72;;;21.21;58.86
32197;BME280;18697;42.770;23.400;2023-09-19T05:49:11;95872.31;;;20.54;61.20
32197;BME280;18697;42.770;23.400;2023-09-19T05:51:36;95881.31;;;20.82;60.24
32197;BME280;18697;42.770;23.400;2023-09-19T05:54:02;95885.97;;;20.80;60.62
32197;BME280;18697;42.770;23.400;2023-09-19T05:56:27;95886.47;;;21.08;59.77
32197;BME280;18697;42.770;23.400;2023-09-19T05:58:52;95884.03;;;21.23;59.99
32197;BME280;18697;42.770;23.400;2023-09-19T06:01:18;95878.28;;;21.35;59.65
32197;BME280;18697;42.770;23.400;2023-09-19T06:03:44;95877.63;;;21.47;58.71
32197;BME280;18697;42.770;23.400;2023-09-19T06:06:09;95876.94;;;21.60;58.73
32197;BME280;18697;42.770;23.400;2023-09-19T06:08:35;95873.34;;;21.59;58.61
32197;BME280;18697;42.770;23.400;2023-09-19T06:11:00;95867.16;;;21.61;58.68
32197;BME280;18697;42.770;23.400;2023-09-19T06:13:28;95866.63;;;21.44;59.21
32197;BME280;18697;42.770;23.400;2023-09-19T06:15:55;95873.50;;;21.67;58.52
32197;BME280;18697;42.770;23.400;2023-09-19T06:18:21;95869.41;;;21.87;57.65
32197;BME280;18697;42.770;23.400;2023-09-19T06:20:51;95857.75;;;22.15;57.14
32197;BME280;18697;42.770;23.400;2023-09-19T06:23:17;95852.91;;;22.28;56.60
32197;BME280;18697;42.770;23.400;2023-09-19T06:25:43;95855.09;;;22.54;56.37
32197;BME280;18697;42.770;23.400;2023-09-19T06:28:09;95852.66;;;22.77;55.49
32197;BME280;18697;42.770;23.400;2023-09-19T06:30:37;95861.53;;;22.87;55.18
32197;BME280;18697;42.770;23.400;2023-09-19T06:33:07;95855.81;;;22.74;55.41
32197;BME280;18697;42.770;23.400;2023-09-19T06:35:33;95854.81;;;22.71;55.41
32197;BME280;18697;42.770;23.400;2023-09-19T06:38:02;95849.88;;;22.08;54.68
32197;BME280;18697;42.770;23.400;2023-09-19T06:40:28;95844.66;;;21.74;55.46
32197;BME280;18697;42.770;23.400;2023-09-19T06:42:53;95856.78;;;21.69;55.83
32197;BME280;18697;42.770;23.400;2023-09-19T06:45:20;95859.06;;;21.52;56.30
32197;BME280;18697;42.770;23.400;2023-09-19T06:47:47;95860.91;;;21.49;57.15
32197;BME280;18697;42.770;23.400;2023-09-19T06:50:19;95863.88;;;21.08;57.14
32197;BME280;18697;42.770;23.400;2023-09-19T06:52:47;95858.59;;;20.69;57.94
32197;BME280;18697;42.770;23.400;2023-09-19T06:55:16;95868.59;;;20.70;58.57
32197;BME280;18697;42.770;23.400;2023-09-19T06:57:44;95868.00;;;20.47;58.77
32197;BME280;18697;42.770;23.400;2023-09-19T07:00:11;95859.94;;;20.21;59.02
32197;BME280;18697;42.770;23.400;2023-09-19T07:02:44;95867.16;;;20.17;58.99
32197;BME280;18697;42.770;23.400;2023-09-19T07:05:10;95877.47;;;20.09;59.33
32197;BME280;18697;42.770;23.400;2023-09-19T07:07:35;95875.91;;;20.13;59.11
32197;BME280;18697;42.770;23.400;2023-09-19T07:10:02;95872.84;;;20.11;59.98
32197;BME280;18697;42.770;23.400;2023-09-19T07:12:27;95875.78;;;20.30;58.94
32197;BME280;18697;42.770;23.400;2023-09-19T07:14:53;95873.03;;;20.60;59.47
32197;BME280;18697;42.770;23.400;2023-09-19T07:17:18;95876.47;;;20.47;58.97
32197;BME280;18697;42.770;23.400;2023-09-19T07:19:44;95873.16;;;20.43;59.68
32197;BME280;18697;42.770;23.400;2023-09-19T07:22:09;95874.41;;;20.48;57.72
32197;BME280;18697;42.770;23.400;2023-09-19T07:24:35;95868.38;;;20.27;59.48
32197;BME280;18697;42.770;23.400;2023-09-19T07:27:02;95857.53;;;20.37;59.14
32197;BME280;18697;42.770;23.400;2023-09-19T07:29:28;95861.97;;;20.26;59.57
32197;BME280;18697;42.770;23.400;2023-09-19T07:31:53;95851.72;;;20.23;59.73
32197;BME280;18697;42.770;23.400;2023-09-19T07:34:19;95856.28;;;20.32;60.28
32197;BME280;18697;42.770;23.400;2023-09-19T07:36:47;95861.75;;;20.19;61.00
32197;BME280;18697;42.770;23.400;2023-09-19T07:39:13;95866.88;;;20.20;61.18
32197;BME280;18697;42.770;23.400;2023-09-19T07:41:38;95861.59;;;20.47;59.71
32197;BME280;18697;42.770;23.400;2023-09-19T07:44:04;95861.81;;;20.54;60.54
32197;BME280;18697;42.770;23.400;2023-09-19T07:46:30;95868.16;;;20.60;59.53
32197;BME280;18697;42.770;23.400;2023-09-19T07:48:56;95870.72;;;20.64;59.96
32197;BME280;18697;42.770;23.400;2023-09-19T07:51:22;95869.47;;;20.59;60.56
32197;BME280;18697;42.770;23.400;2023-09-19T07:53:48;95873.38;;;20.51;60.80
32197;BME280;18697;42.770;23.400;2023-09-19T07:56:13;95865.59;;;20.62;59.63
32197;BME280;18697;42.770;23.400;2023-09-19T07:58:40;95874.19;;;20.76;59.82
32197;BME280;18697;42.770;23.400;2023-09-19T08:01:10;95866.94;;;20.80;59.11
32197;BME280;18697;42.770;23.400;2023-09-19T08:03:36;95877.97;;;20.84;59.46
32197;BME280;18697;42.770;23.400;2023-09-19T08:06:06;95869.69;;;20.61;60.01
32197;BME280;18697;42.770;23.400;2023-09-19T08:08:32;95867.69;;;20.56;59.38
32197;BME280;18697;42.770;23.400;2023-09-19T08:10:59;95859.97;;;20.87;59.83
32197;BME280;18697;42.770;23.400;2023-09-19T08:13:25;95862.34;;;21.07;59.08
32197;BME280;18697;42.770;23.400;2023-09-19T08:15:57;95858.84;;;21.25;58.88
32197;BME280;18697;42.770;23.400;2023-09-19T08:18:22;95847.31;;;21.23;57.76
32197;BME280;18697;42.770;23.400;2023-09-19T08:20:52;95851.66;;;21.24;58.39
32197;BME280;18697;42.770;23.400;2023-09-19T08:23:18;95847.22;;;21.05;57.74
32197;BME280;18697;42.770;23.400;2023-09-19T08:25:48;95840.91;;;20.93;58.57
32197;BME280;18697;42.770;23.400;2023-09-19T08:28:13;95839.34;;;20.97;58.98
32197;BME280;18697;42.770;23.400;2023-09-19T08:30:45;95830.91;;;20.92;59.65
32197;BME280;18697;42.770;23.400;2023-09-19T08:33:11;95834.50;;;20.92;59.21
32197;BME280;18697;42.770;23.400;2023-09-19T08:35:37;95839.63;;;20.94;59.42
32197;BME280;18697;42.770;23.400;2023-09-19T08:38:05;95843.75;;;21.17;59.26
32197;BME280;18697;42.770;23.400;2023-09-19T08:40:32;95839.78;;;21.31;59.39
32197;BME280;18697;42.770;23.400;2023-09-19T08:42:58;95850.50;;;21.39;57.30
32197;BME280;18697;42.770;23.400;2023-09-19T08:45:25;95839.13;;;21.44;57.02
32197;BME280;18697;42.770;23.400;2023-09-19T08:48:16;95841.53;;;21.35;58.39
32197;BME280;18697;42.770;23.400;2023-09-19T08:50:52;95833.41;;;21.50;57.13
32197;BME280;18697;42.770;23.400;2023-09-19T08:56:29;95823.31;;;21.54;58.59
32197;BME280;18697;42.770;23.400;2023-09-19T08:59:06;95828.81;;;21.65;58.19
32197;BME280;18697;42.770;23.400;2023-09-19T09:01:35;95831.69;;;22.03;56.61
32197;BME280;18697;42.770;23.400;2023-09-19T09:04:02;95827.66;;;22.30;56.36
32197;BME280;18697;42.770;23.400;2023-09-19T09:06:27;95823.22;;;22.03;55.79
32197;BME280;18697;42.770;23.400;2023-09-19T09:08:54;95816.69;;;22.27;56.85
32197;BME280;18697;42.770;23.400;2023-09-19T09:11:20;95819.22;;;22.44;56.05
32197;BME280;18697;42.770;23.400;2023-09-19T09:13:47;95822.47;;;22.67;55.42
32197;BME280;18697;42.770;23.400;2023-09-19T09:16:14;95814.50;;;22.65;55.28
32197;BME280;18697;42.770;23.400;2023-09-19T09:18:43;95799.59;;;22.65;54.56
32197;BME280;18697;42.770;23.400;2023-09-19T09:21:09;95806.97;;;22.54;54.35
32197;BME280;18697;42.770;23.400;2023-09-19T09:23:35;95810.56;;;22.87;54.14
32197;BME280;18697;42.770;23.400;2023-09-19T09:26:00;95809.25;;;23.14;53.73
32197;BME280;18697;42.770;23.400;2023-09-19T09:28:31;95806.66;;;23.43;54.44
32197;BME280;18697;42.770;23.400;2023-09-19T09:30:58;95802.50;;;23.31;53.72
32197;BME280;18697;42.770;23.400;2023-09-19T09:33:25;95795.00;;;23.33;53.45
32197;BME280;18697;42.770;23.400;2023-09-19T09:38:23;95793.47;;;23.19;52.35
32197;BME280;18697;42.770;23.400;2023-09-19T09:40:53;95795.75;;;23.34;52.78
32197;BME280;18697;42.770;23.400;2023-09-19T09:43:36;95789.88;;;23.45;52.15
32197;BME280;18697;42.770;23.400;2023-09-19T09:46:08;95775.28;;;23.54;52.71
32197;BME280;18697;42.770;23.400;2023-09-19T09:57:01;95771.13;;;23.55;51.99
32197;BME280;18697;42.770;23.400;2023-09-19T09:59:46;95770.13;;;23.39;51.70
32197;BME280;18697;42.770;23.400;2023-09-19T10:04:52;95774.16;;;23.44;52.86
32197;BME280;18697;42.770;23.400;2023-09-19T10:07:33;95769.81;;;23.43;52.28
32197;BME280;18697;42.770;23.400;2023-09-19T10:10:03;95769.94;;;23.37;53.48
32197;BME280;18697;42.770;23.400;2023-09-19T10:12:43;95764.16;;;23.30;53.76
32197;BME280;18697;42.770;23.400;2023-09-19T10:15:11;95761.09;;;23.41;53.92
32197;BME280;18697;42.770;23.400;2023-09-19T10:17:44;95759.66;;;23.47;52.09
32197;BME280;18697;42.770;23.400;2023-09-19T10:20:13;95763.03;;;23.46;52.77
32197;BME280;18697;42.770;23.400;2023-09-19T10:23:05;95763.47;;;23.50;53.83
32197;BME280;18697;42.770;23.400;2023-09-19T10:25:36;95757.94;;;23.57;51.44
32197;BME280;18697;42.770;23.400;2023-09-19T10:28:02;95758.91;;;23.47;53.49
32197;BME280;18697;42.770;23.400;2023-09-19T10:30:31;95756.84;;;23.47;53.08
32197;BME280;18697;42.770;23.400;2023-09-19T10:33:02;95756.28;;;23.49;54.17
32197;BME280;18697;42.770;23.400;2023-09-19T10:35:28;95744.97;;;23.22;54.31
32197;BME280;18697;42.770;23.400;2023-09-19T10:37:55;95744.41;;;23.37;53.34
32197;BME280;18697;42.770;23.400;2023-09-19T10:40:22;95745.06;;;23.30;53.35
32197;BME280;18697;42.770;23.400;2023-09-19T10:43:00;95741.81;;;23.39;53.29
32197;BME280;18697;42.770;23.400;2023-09-19T10:45:28;95735.13;;;23.63;53.76
32197;BME280;18697;42.770;23.400;2023-09-19T10:47:57;95734.38;;;23.49;53.50
32197;BME280;18697;42.770;23.400;2023-09-19T10:50:23;95734.91;;;23.61;53.03
32197;BME280;18697;42.770;23.400;2023-09-19T10:52:50;95726.31;;;23.87;52.76
32197;BME280;18697;42.770;23.400;2023-09-19T10:55:25;95723.75;;;23.76;51.82
32197;BME280;18697;42.770;23.400;2023-09-19T10:57:50;95718.88;;;23.64;52.70
32197;BME280;18697;42.770;23.400;2023-09-19T11:00:17;95720.44;;;23.85;52.76
32197;BME280;18697;42.770;23.400;2023-09-19T11:03:21;95722.25;;;23.75;52.75
32197;BME280;18697;42.770;23.400;2023-09-19T11:06:16;95709.84;;;23.86;53.52
32197;BME280;18697;42.770;23.400;2023-09-19T11:30:46;95711.81;;;24.53;50.85
32197;BME280;18697;42.770;23.400;2023-09-19T11:33:29;95709.00;;;24.82;51.32
32197;BME280;18697;42.770;23.400;2023-09-19T11:36:12;95691.00;;;25.08;49.44
32197;BME280;18697;42.770;23.400;2023-09-19T11:43:47;95671.59;;;25.78;49.53
32197;BME280;18697;42.770;23.400;2023-09-19T11:46:13;95674.25;;;25.84;46.44
32197;BME280;18697;42.770;23.400;2023-09-19T11:48:42;95671.78;;;25.73;45.14
32197;BME280;18697;42.770;23.400;2023-09-19T11:51:13;95661.47;;;25.62;45.78
32197;BME280;18697;42.770;23.400;2023-09-19T11:53:49;95665.75;;;25.92;46.56
32197;BME280;18697;42.770;23.400;2023-09-19T11:56:20;95661.19;;;26.11;46.26
32197;BME280;18697;42.770;23.400;2023-09-19T11:58:49;95654.38;;;26.14;45.90
32197;BME280;18697;42.770;23.400;2023-09-19T12:01:21;95651.72;;;26.24;46.29
32197;BME280;18697;42.770;23.400;2023-09-19T12:03:49;95655.69;;;26.21;46.09
32197;BME280;18697;42.770;23.400;2023-09-19T12:06:19;95649.81;;;25.96;45.56
32197;BME280;18697;42.770;23.400;2023-09-19T12:08:47;95640.69;;;25.82;47.97
32197;BME280;18697;42.770;23.400;2023-09-19T12:11:14;95630.66;;;26.19;45.77
32197;BME280;18697;42.770;23.400;2023-09-19T12:13:44;95628.78;;;26.45;46.60
32197;BME280;18697;42.770;23.400;2023-09-19T12:16:21;95624.41;;;26.59;44.31
32197;BME280;18697;42.770;23.400;2023-09-19T12:18:47;95623.84;;;26.53;44.91
32197;BME280;18697;42.770;23.400;2023-09-19T12:21:28;95628.00;;;26.67;44.25
32197;BME280;18697;42.770;23.400;2023-09-19T12:24:12;95618.25;;;26.85;43.80
32197;BME280;18697;42.770;23.400;2023-09-19T12:26:43;95613.50;;;26.80;43.83
32197;BME280;18697;42.770;23.400;2023-09-19T12:29:19;95620.53;;;26.87;44.15
32197;BME280;18697;42.770;23.400;2023-09-19T12:31:55;95618.31;;;26.63;44.02
32197;BME280;18697;42.770;23.400;2023-09-19T12:34:27;95614.53;;;26.60;43.85
32197;BME280;18697;42.770;23.400;2023-09-19T12:37:06;95613.25;;;27.09;44.88
32197;BME280;18697;42.770;23.400;2023-09-19T12:39:38;95604.25;;;26.72;45.00
32197;BME280;18697;42.770;23.400;2023-09-19T12:42:03;95607.41;;;26.84;44.64
32197;BME280;18697;42.770;23.400;2023-09-19T12:44:35;95609.75;;;26.70;43.81
32197;BME280;18697;42.770;23.400;2023-09-19T12:47:08;95594.59;;;26.07;44.83
32197;BME280;18697;42.770;23.400;2023-09-19T12:49:34;95604.09;;;26.17;45.42
32197;BME280;18697;42.770;23.400;2023-09-19T12:51:59;95597.41;;;26.68;44.71
32197;BME280;18697;42.770;23.400;2023-09-19T12:54:37;95600.75;;;26.89;44.88
32197;BME280;18697;42.770;23.400;2023-09-19T12:57:04;95594.06;;;27.09;45.16
32197;BME280;18697;42.770;23.400;2023-09-19T12:59:30;95591.25;;;27.02;44.42
32197;BME280;18697;42.770;23.400;2023-09-19T13:02:04;95584.72;;;27.16;43.53
32197;BME280;18697;42.770;23.400;2023-09-19T13:04:32;95585.19;;;26.98;42.89
32197;BME280;18697;42.770;23.400;2023-09-19T13:06:59;95577.69;;;27.17;43.37
32197;BME280;18697;42.770;23.400;2023-09-19T13:09:26;95576.34;;;27.19;43.54
32197;BME280;18697;42.770;23.400;2023-09-19T13:12:03;95569.34;;;27.12;43.98
32197;BME280;18697;42.770;23.400;2023-09-19T13:14:29;95562.66;;;27.25;45.75
32197;BME280;18697;42.770;23.400;2023-09-19T13:19:41;95559.28;;;27.11;44.93
32197;BME280;18697;42.770;23.400;2023-09-19T13:22:45;95570.66;;;27.19;44.25
32197;BME280;18697;42.770;23.400;2023-09-19T13:25:22;95565.03;;;26.96;43.81
32197;BME280;18697;42.770;23.400;2023-09-19T13:27:49;95562.34;;;27.05;44.51
32197;BME280;18697;42.770;23.400;2023-09-19T13:30:20;95561.44;;;26.88;43.76
32197;BME280;18697;42.770;23.400;2023-09-19T13:32:45;95556.50;;;26.88;44.54
32197;BME280;18697;42.770;23.400;2023-09-19T13:35:13;95558.22;;;26.83;44.97
32197;BME280;18697;42.770;23.400;2023-09-19T13:37:40;95553.84;;;26.90;44.57
32197;BME280;18697;42.770;23.400;2023-09-19T13:40:12;95554.00;;;26.92;43.36
32197;BME280;18697;42.770;23.400;2023-09-19T13:42:39;95551.28;;;26.62;44.80
32197;BME280;18697;42.770;23.400;2023-09-19T13:45:06;95543.56;;;26.95;43.00
32197;BME280;18697;42.770;23.400;2023-09-19T13:47:32;95541.84;;;26.99;43.41
32197;BME280;18697;42.770;23.400;2023-09-19T13:49:59;95540.91;;;26.97;45.84
32197;BME280;18697;42.770;23.400;2023-09-19T13:52:25;95537.09;;;26.94;44.49
32197;BME280;18697;42.770;23.400;2023-09-19T13:54:54;95541.47;;;26.95;44.29
32197;BME280;18697;42.770;23.400;2023-09-19T13:57:24;95531.03;;;26.90;45.37